createdAt,value
2022-10-26T00:01:48.432Z,12.99
2022-10-26T00:06:49.987Z,13.04
2022-10-26T00:11:52.614Z,13.01
2022-10-26T00:16:54.088Z,13.10
2022-10-26T00:21:55.637Z,13.17
2022-10-26T00:26:57.102Z,13.23
2022-10-26T00:31:58.670Z,13.35
2022-10-26T00:37:00.174Z,13.29
2022-10-26T00:42:01.628Z,13.39
2022-10-26T00:47:05.027Z,13.29
2022-10-26T00:52:08.813Z,13.36
2022-10-26T00:57:12.313Z,13.38
2022-10-26T01:02:13.853Z,13.39
2022-10-26T01:07:15.757Z,13.46
2022-10-26T01:12:17.281Z,13.42
2022-10-26T01:17:56.518Z,13.47
2022-10-26T01:23:02.770Z,13.47
2022-10-26T01:28:16.230Z,13.42
2022-10-26T01:33:31.043Z,13.40
2022-10-26T01:38:47.383Z,13.55
2022-10-26T01:43:55.303Z,13.41
2022-10-26T01:49:01.595Z,13.46
2022-10-26T01:54:03.133Z,13.53
2022-10-26T01:59:13.394Z,13.49
2022-10-26T02:04:51.968Z,13.60
2022-10-26T02:10:11.820Z,13.53
2022-10-26T02:15:33.765Z,13.57
2022-10-26T02:20:44.483Z,13.72
2022-10-26T02:25:53.308Z,13.67
2022-10-26T02:31:00.342Z,13.78
2022-10-26T02:36:05.174Z,13.71
2022-10-26T02:41:08.637Z,13.81
2022-10-26T02:46:15.205Z,13.72
2022-10-26T02:51:41.122Z,13.74
2022-10-26T02:56:58.026Z,13.75
2022-10-26T03:02:00.350Z,13.73
2022-10-26T03:07:02.008Z,13.63
2022-10-26T03:12:03.639Z,13.65
2022-10-26T03:17:05.118Z,13.71
2022-10-26T03:22:06.635Z,13.73
2022-10-26T03:27:08.124Z,13.71
2022-10-26T03:32:09.959Z,13.76
2022-10-26T03:37:11.571Z,13.75
2022-10-26T03:42:13.030Z,13.78
2022-10-26T03:47:14.602Z,13.86
2022-10-26T03:52:16.089Z,13.81
2022-10-26T03:57:42.807Z,13.90
2022-10-26T04:02:48.455Z,13.89
2022-10-26T04:07:58.442Z,13.87
2022-10-26T04:13:01.200Z,13.92
2022-10-26T04:18:03.132Z,13.95
2022-10-26T04:23:06.951Z,13.91
2022-10-26T04:28:12.878Z,13.83
2022-10-26T04:33:14.422Z,13.99
2022-10-26T04:38:15.888Z,13.95
2022-10-26T04:43:17.420Z,14.13
2022-10-26T04:48:19.040Z,13.97
2022-10-26T04:53:20.567Z,13.95
2022-10-26T04:58:22.005Z,13.99
2022-10-26T05:03:23.866Z,14.03
2022-10-26T05:08:27.148Z,14.07
2022-10-26T05:13:28.680Z,14.07
2022-10-26T05:18:30.255Z,13.97
2022-10-26T05:23:31.676Z,14.10
2022-10-26T05:28:33.168Z,13.98
2022-10-26T05:33:34.715Z,14.01
2022-10-26T05:38:36.221Z,14.09
2022-10-26T05:43:37.681Z,14.08
2022-10-26T05:48:39.107Z,14.01
2022-10-26T05:53:40.588Z,14.13
2022-10-26T05:58:42.272Z,14.13
2022-10-26T06:03:58.789Z,14.17
2022-10-26T06:09:00.567Z,14.25
2022-10-26T06:14:03.375Z,14.20
2022-10-26T06:19:16.921Z,14.20
2022-10-26T06:24:47.361Z,14.21
2022-10-26T06:30:12.568Z,14.15
2022-10-26T06:35:32.940Z,14.20
2022-10-26T06:40:37.792Z,14.22
2022-10-26T06:45:45.307Z,14.29
2022-10-26T06:50:52.027Z,14.27
2022-10-26T06:55:53.811Z,14.36
2022-10-26T07:00:56.464Z,14.43
2022-10-26T07:05:57.964Z,14.63
2022-10-26T07:10:59.502Z,14.72
2022-10-26T07:16:01.022Z,14.79
2022-10-26T07:21:02.480Z,14.75
2022-10-26T07:26:04.075Z,14.87
2022-10-26T07:31:05.682Z,15.11
2022-10-26T07:36:08.538Z,15.13
2022-10-26T07:41:11.076Z,15.10
2022-10-26T07:46:13.026Z,15.42
2022-10-26T07:51:14.753Z,15.55
2022-10-26T07:56:16.397Z,15.61
2022-10-26T08:01:18.097Z,15.68
2022-10-26T08:06:22.163Z,15.85
2022-10-26T08:11:23.608Z,15.96
2022-10-26T08:16:25.150Z,16.01
2022-10-26T08:21:36.573Z,16.07
2022-10-26T08:26:41.759Z,15.95
2022-10-26T08:31:43.430Z,16.00
2022-10-26T08:36:44.923Z,16.04
2022-10-26T08:41:52.701Z,16.14
2022-10-26T08:47:13.027Z,16.31
2022-10-26T08:52:19.215Z,16.50
2022-10-26T08:57:33.856Z,16.53
2022-10-26T09:02:35.339Z,16.60
2022-10-26T09:07:53.333Z,16.72
2022-10-26T09:13:01.660Z,16.86
2022-10-26T09:18:08.815Z,17.04
2022-10-26T09:23:38.063Z,17.19
2022-10-26T09:28:41.210Z,17.25
2022-10-26T09:33:42.711Z,17.30
2022-10-26T09:39:10.419Z,17.39
2022-10-26T09:44:20.909Z,17.71
2022-10-26T09:49:31.300Z,17.72
2022-10-26T09:54:32.820Z,17.79
2022-10-26T09:59:38.955Z,17.79
2022-10-26T10:04:47.060Z,17.85
2022-10-26T10:10:07.723Z,18.18
2022-10-26T10:15:35.693Z,18.29
2022-10-26T10:20:37.216Z,18.37
2022-10-26T10:25:40.055Z,18.41
2022-10-26T10:30:54.401Z,18.50
2022-10-26T10:35:55.911Z,18.61
2022-10-26T10:41:00.132Z,18.67
2022-10-26T10:46:01.773Z,18.77
2022-10-26T10:51:12.436Z,18.98
2022-10-26T10:56:28.846Z,18.99
2022-10-26T11:01:40.935Z,19.09
2022-10-26T11:06:44.537Z,19.13
2022-10-26T11:11:53.849Z,19.19
2022-10-26T11:16:57.318Z,19.32
2022-10-26T11:21:58.892Z,19.35
2022-10-26T11:27:17.364Z,19.52
2022-10-26T11:32:31.094Z,19.41
2022-10-26T11:37:53.207Z,19.45
2022-10-26T11:43:03.963Z,19.57
2022-10-26T11:48:22.010Z,19.62
2022-10-26T11:53:39.918Z,19.89
2022-10-26T11:58:42.992Z,19.92
2022-10-26T12:03:50.491Z,19.82
2022-10-26T12:08:59.058Z,19.96
2022-10-26T12:14:09.372Z,20.08
2022-10-26T12:24:35.292Z,20.22
2022-10-26T12:29:46.567Z,20.23
2022-10-26T12:34:50.973Z,20.24
2022-10-26T12:39:52.505Z,20.20
2022-10-26T12:44:54.022Z,20.14
2022-10-26T12:50:01.967Z,20.22
2022-10-26T12:55:13.462Z,20.15
2022-10-26T13:00:21.775Z,20.14
2022-10-26T13:05:43.999Z,20.20
2022-10-26T13:11:20.604Z,20.23
2022-10-26T13:16:26.406Z,20.25
2022-10-26T13:21:28.215Z,20.44
2022-10-26T13:26:31.375Z,20.59
2022-10-26T13:31:32.962Z,20.57
2022-10-26T13:36:41.683Z,20.56
2022-10-26T13:41:46.096Z,20.54
2022-10-26T13:46:54.400Z,20.54
2022-10-26T13:52:00.211Z,20.65
2022-10-26T13:57:12.847Z,20.67
2022-10-26T14:02:24.973Z,20.62
2022-10-26T14:07:35.806Z,20.64
2022-10-26T14:12:38.367Z,20.71
2022-10-26T14:17:40.011Z,20.51
2022-10-26T14:22:41.577Z,20.61
2022-10-26T14:27:44.220Z,20.55
2022-10-26T14:32:45.791Z,20.49
2022-10-26T14:37:54.447Z,20.40
2022-10-26T14:42:58.952Z,20.39
2022-10-26T14:48:02.566Z,20.41
2022-10-26T15:00:00.906Z,20.19
2022-10-26T15:05:17.475Z,20.13
2022-10-26T15:10:37.500Z,20.00
2022-10-26T15:15:39.845Z,20.13
2022-10-26T15:20:48.290Z,20.00
2022-10-26T15:25:54.729Z,19.96
2022-10-26T15:31:11.301Z,19.92
2022-10-26T15:36:15.524Z,19.78
2022-10-26T15:41:23.940Z,19.72
2022-10-26T15:46:30.465Z,19.60
2022-10-26T15:51:32.589Z,19.54
2022-10-26T15:56:34.125Z,19.40
2022-10-26T16:01:35.668Z,19.30
2022-10-26T16:06:39.296Z,19.06
2022-10-26T16:11:40.829Z,19.11
2022-10-26T16:16:42.325Z,18.97
2022-10-26T16:21:43.937Z,18.89
2022-10-26T16:26:46.227Z,18.79
2022-10-26T16:31:48.926Z,18.81
2022-10-26T16:36:50.406Z,18.60
2022-10-26T16:41:52.360Z,18.61
2022-10-26T16:46:53.836Z,18.49
2022-10-26T16:51:57.463Z,18.49
2022-10-26T16:56:59.049Z,18.42
2022-10-26T17:02:00.818Z,18.46
2022-10-26T17:07:02.421Z,18.28
2022-10-26T17:12:04.621Z,18.12
2022-10-26T17:17:06.146Z,18.02
2022-10-26T17:22:09.765Z,17.91
2022-10-26T17:27:11.361Z,17.80
2022-10-26T17:32:16.418Z,17.92
2022-10-26T17:37:18.034Z,17.83
2022-10-26T17:42:19.647Z,17.74
2022-10-26T17:47:21.186Z,17.73
2022-10-26T17:52:24.687Z,17.67
2022-10-26T17:57:27.358Z,17.56
2022-10-26T18:02:29.076Z,17.59
2022-10-26T18:07:31.345Z,17.60
2022-10-26T18:12:32.946Z,17.55
2022-10-26T18:17:36.563Z,17.51
2022-10-26T18:22:38.223Z,17.47
2022-10-26T18:27:40.997Z,17.47
2022-10-26T18:32:42.528Z,17.42
2022-10-26T18:37:44.406Z,17.27
2022-10-26T18:42:46.084Z,17.30
2022-10-26T18:47:48.040Z,17.17
2022-10-26T18:52:49.994Z,17.17
2022-10-26T18:57:51.740Z,17.14
2022-10-26T19:02:53.960Z,17.11
2022-10-26T19:07:56.001Z,17.06
2022-10-26T19:12:57.815Z,17.00
2022-10-26T19:17:59.807Z,16.96
2022-10-26T19:23:01.405Z,16.76
2022-10-26T19:28:03.357Z,16.76
2022-10-26T19:33:05.096Z,16.72
2022-10-26T19:38:06.881Z,16.68
2022-10-26T19:43:10.376Z,16.67
2022-10-26T19:48:12.961Z,16.51
2022-10-26T19:53:17.285Z,16.65
2022-10-26T19:58:18.803Z,16.52
2022-10-26T20:03:20.552Z,16.49
2022-10-26T20:08:22.570Z,16.11
2022-10-26T20:13:24.328Z,16.06
2022-10-26T20:18:27.966Z,15.99
2022-10-26T20:23:29.435Z,16.05
2022-10-26T20:28:31.128Z,15.90
2022-10-26T20:33:32.528Z,15.97
2022-10-26T20:38:34.361Z,15.94
2022-10-26T20:43:38.828Z,15.86
2022-10-26T20:48:40.613Z,15.91
2022-10-26T20:53:47.936Z,15.88
2022-10-26T20:58:57.655Z,15.68
2022-10-26T21:04:02.358Z,15.60
2022-10-26T21:09:03.864Z,15.62
2022-10-26T21:14:06.292Z,15.59
2022-10-26T21:19:08.296Z,15.58
2022-10-26T21:24:09.864Z,15.65
2022-10-26T21:29:11.573Z,15.65
2022-10-26T21:34:13.253Z,15.46
2022-10-26T21:39:14.948Z,15.28
2022-10-26T21:44:32.764Z,15.38
2022-10-26T21:49:38.672Z,15.43
2022-10-26T21:54:40.157Z,15.52
2022-10-26T21:59:41.812Z,15.21
2022-10-26T22:04:43.301Z,15.14
2022-10-26T22:10:00.512Z,15.11
2022-10-26T22:15:06.785Z,15.02
2022-10-26T22:20:10.429Z,14.96
2022-10-26T22:25:11.858Z,14.99
2022-10-26T22:30:13.914Z,14.96
2022-10-26T22:35:28.954Z,15.02
2022-10-26T22:40:31.070Z,15.25
2022-10-26T22:45:32.539Z,15.12
2022-10-26T22:50:33.976Z,15.00
2022-10-26T22:55:35.428Z,14.96
2022-10-26T23:00:39.922Z,15.00
2022-10-26T23:05:48.654Z,15.06
2022-10-26T23:10:50.258Z,15.07
2022-10-26T23:16:13.497Z,14.95
2022-10-26T23:21:16.022Z,15.02
2022-10-26T23:26:21.016Z,15.01
2022-10-26T23:31:28.143Z,15.00
2022-10-26T23:36:34.104Z,14.95
2022-10-26T23:41:35.537Z,15.02
2022-10-26T23:46:37.111Z,14.89
2022-10-26T23:51:38.615Z,14.84
2022-10-26T23:56:40.158Z,14.50
